Time;durP1;ratioP1;P1;durP2;ratioP2;P2;SDS_P1;SDS_P2;PMS_P1;PMS_P2;Temp;Humidity;BMP_temperature;BMP_pressure;BME280_temperature;BME280_humidity;BME280_pressure;Samples;Min_cycle;Max_cycle;Signal;HPM_P1;HPM_P2
2023/04/02 00:02:21;;;;;;;0.35;0.10;;;9.50;99.90;;;;;;5078743;28;20081;-74
2023/04/02 00:05:15;;;;;;;0.05;0.05;;;9.60;99.90;;;;;;5094437;28;20024;-74
2023/04/02 00:07:43;;;;;;;0.13;0.00;;;9.50;99.90;;;;;;5077911;28;20487;-74
2023/04/02 00:10:37;;;;;;;0.25;0.13;;;9.50;99.90;;;;;;5095207;28;20082;-74
2023/04/02 00:13:02;;;;;;;0.20;0.00;;;9.50;99.90;;;;;;5093885;28;20128;-75
2023/04/02 00:15:29;;;;;;;0.08;0.00;;;9.50;99.90;;;;;;5076387;28;20486;-75
2023/04/02 00:17:55;;;;;;;0.73;0.20;;;9.40;99.90;;;;;;5075727;28;20057;-75
2023/04/02 00:20:22;;;;;;;0.10;0.00;;;9.30;99.90;;;;;;5075735;28;20434;-75
2023/04/02 00:22:49;;;;;;;0.00;0.00;;;9.20;99.90;;;;;;5096852;28;20036;-75
2023/04/02 00:25:15;;;;;;;0.10;0.00;;;9.10;99.90;;;;;;5097052;28;20028;-75
2023/04/02 00:27:42;;;;;;;0.20;0.00;;;9.10;99.90;;;;;;5079846;28;20024;-75
2023/04/02 00:30:10;;;;;;;0.00;0.00;;;9.00;99.90;;;;;;5080527;28;20460;-75
2023/04/02 00:32:36;;;;;;;0.13;0.10;;;9.00;99.90;;;;;;5097583;28;20032;-75
2023/04/02 00:35:03;;;;;;;2.20;0.10;;;9.00;99.90;;;;;;5098911;28;20039;-75
2023/04/02 00:37:37;;;;;;;0.10;0.00;;;8.90;99.90;;;;;;5079364;28;20024;-75
2023/04/02 00:40:15;;;;;;;1.10;0.20;;;8.90;99.90;;;;;;5078729;28;20353;-75
2023/04/02 00:42:41;;;;;;;0.00;0.00;;;9.00;99.90;;;;;;5083213;28;20097;-75
2023/04/02 00:45:24;;;;;;;0.52;0.10;;;9.00;99.90;;;;;;5098394;28;20051;-74
2023/04/02 00:47:50;;;;;;;0.25;0.10;;;9.00;99.90;;;;;;5080253;28;20471;-74
2023/04/02 00:50:33;;;;;;;0.10;0.00;;;9.00;99.90;;;;;;5098789;28;20020;-74
2023/04/02 00:53:02;;;;;;;0.05;0.00;;;9.00;99.90;;;;;;5097661;28;20480;-74
2023/04/02 00:55:40;;;;;;;0.10;0.00;;;9.00;99.90;;;;;;5098735;28;20056;-74
2023/04/02 00:58:24;;;;;;;0.50;0.00;;;9.10;99.90;;;;;;5098225;28;20023;-74
2023/04/02 01:00:51;;;;;;;0.00;0.00;;;9.10;99.90;;;;;;5079634;28;20024;-74
2023/04/02 01:03:17;;;;;;;0.15;0.10;;;9.10;99.90;;;;;;5100238;28;20036;-74
2023/04/02 01:05:49;;;;;;;0.38;0.15;;;9.00;99.90;;;;;;5099256;28;20024;-74
2023/04/02 01:08:33;;;;;;;1.67;0.05;;;9.00;99.90;;;;;;5097178;28;20020;-74
2023/04/02 01:11:17;;;;;;;0.13;0.00;;;9.10;99.90;;;;;;5097302;28;20035;-74
2023/04/02 01:13:57;;;;;;;0.00;0.00;;;9.10;99.90;;;;;;5097592;28;20032;-74
2023/04/02 01:16:37;;;;;;;0.13;0.10;;;9.10;99.90;;;;;;5079056;28;20070;-74
2023/04/02 01:19:12;;;;;;;0.80;0.13;;;9.10;99.90;;;;;;5097021;28;20031;-74
2023/04/02 01:22:05;;;;;;;0.20;0.00;;;9.10;99.90;;;;;;5079652;28;20471;-74
2023/04/02 01:24:33;;;;;;;0.25;0.08;;;9.10;99.90;;;;;;5094067;28;20039;-74
2023/04/02 01:27:33;;;;;;;0.03;0.03;;;9.20;99.90;;;;;;5101896;28;20065;-74
2023/04/02 01:30:02;;;;;;;0.10;0.00;;;9.20;99.90;;;;;;5087994;28;20549;-74
2023/04/02 01:32:29;;;;;;;0.10;0.00;;;9.10;99.90;;;;;;5100700;28;20028;-74
2023/04/02 01:34:57;;;;;;;0.00;0.00;;;9.10;99.90;;;;;;5101096;28;20028;-74
2023/04/02 01:37:33;;;;;;;0.20;0.08;;;9.10;99.90;;;;;;5096813;28;20052;-74
2023/04/02 01:40:23;;;;;;;0.00;0.00;;;9.20;99.90;;;;;;5079418;28;20077;-73
2023/04/02 01:42:57;;;;;;;1.50;0.00;;;9.20;99.90;;;;;;5097364;28;20059;-73
2023/04/02 01:45:23;;;;;;;0.05;0.00;;;9.20;99.90;;;;;;5097627;28;20464;-74
2023/04/02 01:47:50;;;;;;;0.28;0.00;;;9.20;99.90;;;;;;5100487;28;20095;-74
2023/04/02 01:50:18;;;;;;;0.13;0.10;;;9.10;99.90;;;;;;5099912;28;20089;-74
2023/04/02 01:52:47;;;;;;;0.00;0.00;;;9.10;99.90;;;;;;5083112;28;20051;-74
2023/04/02 01:55:16;;;;;;;0.30;0.08;;;9.10;99.90;;;;;;5097273;28;20254;-74
2023/04/02 01:57:43;;;;;;;;;;;9.10;99.90;;;;;;5078947;28;20115;-74
2023/04/02 02:00:14;;;;;;;0.10;0.00;;;9.10;99.90;;;;;;5078624;28;19904;-74
2023/04/02 02:02:42;;;;;;;0.55;0.10;;;9.10;99.90;;;;;;5079189;28;20032;-73
2023/04/02 02:05:17;;;;;;;0.10;0.10;;;9.10;99.90;;;;;;5097417;28;20118;-74
2023/04/02 02:07:44;;;;;;;1.17;0.10;;;9.10;99.90;;;;;;5101649;28;20044;-74
2023/04/02 02:10:34;;;;;;;0.32;0.08;;;9.10;99.90;;;;;;5100896;28;20024;-74
2023/04/02 02:12:59;;;;;;;0.10;0.00;;;9.10;99.90;;;;;;5087609;28;20569;-74
2023/04/02 02:15:26;;;;;;;0.10;0.03;;;9.10;99.90;;;;;;5097828;28;20024;-74
2023/04/02 02:18:03;;;;;;;0.15;0.15;;;9.10;99.90;;;;;;5077897;28;20032;-74
2023/04/02 02:20:30;;;;;;;0.10;0.10;;;9.20;99.90;;;;;;5101593;28;20411;-74
2023/04/02 02:22:56;;;;;;;0.70;0.13;;;9.20;99.90;;;;;;5101109;28;20085;-74
2023/04/02 02:25:26;;;;;;;0.30;0.10;;;9.10;99.90;;;;;;5083581;28;20471;-74
2023/04/02 02:27:59;;;;;;;0.25;0.10;;;9.10;99.90;;;;;;5099629;28;20025;-74
2023/04/02 02:30:34;;;;;;;0.13;0.00;;;9.20;99.90;;;;;;5096025;28;20406;-74
2023/04/02 02:33:27;;;;;;;0.05;0.00;;;9.10;99.90;;;;;;5095590;28;20434;-74
2023/04/02 02:36:06;;;;;;;0.00;0.00;;;9.20;99.90;;;;;;5077678;28;20024;-74
2023/04/02 02:38:54;;;;;;;0.90;0.00;;;9.20;99.90;;;;;;5095667;28;20024;-74
2023/04/02 02:41:43;;;;;;;2.40;0.00;;;9.10;99.90;;;;;;5096598;28;20056;-74
2023/04/02 02:44:09;;;;;;;0.40;0.00;;;9.10;99.90;;;;;;5095737;28;20040;-74
2023/04/02 02:46:41;;;;;;;0.00;0.00;;;9.00;99.90;;;;;;5078133;28;20379;-74
2023/04/02 02:49:13;;;;;;;0.13;0.00;;;9.00;99.90;;;;;;5077424;28;20028;-74
2023/04/02 02:51:48;;;;;;;0.08;0.00;;;8.90;99.90;;;;;;5094987;28;20468;-74
2023/04/02 02:54:17;;;;;;;1.27;0.00;;;8.90;99.90;;;;;;5094786;28;20047;-74
2023/04/02 02:56:50;;;;;;;0.00;0.00;;;8.90;99.90;;;;;;5077090;28;20031;-74
2023/04/02 02:59:18;;;;;;;0.30;0.00;;;8.80;99.90;;;;;;5095724;28;20032;-74
2023/04/02 03:01:46;;;;;;;0.05;0.00;;;8.80;99.90;;;;;;5077013;28;20380;-74
2023/04/02 03:04:13;;;;;;;0.30;0.10;;;8.80;99.90;;;;;;5076294;28;20024;-74
2023/04/02 03:06:40;;;;;;;0.28;0.10;;;8.80;99.90;;;;;;5093364;28;20101;-74
2023/04/02 03:09:18;;;;;;;0.45;0.00;;;8.70;99.90;;;;;;5093706;28;20027;-74
2023/04/02 03:11:44;;;;;;;0.00;0.00;;;8.70;99.90;;;;;;5095020;28;20023;-74
2023/04/02 03:14:16;;;;;;;2.25;0.00;;;8.70;99.90;;;;;;5095079;28;20028;-74
2023/04/02 03:16:46;;;;;;;1.38;0.10;;;8.70;99.90;;;;;;5077647;28;20035;-74
2023/04/02 03:19:33;;;;;;;0.82;0.10;;;8.70;99.90;;;;;;5094471;28;20067;-74
2023/04/02 03:22:12;;;;;;;0.20;0.00;;;8.70;99.90;;;;;;5077709;28;20039;-74
2023/04/02 03:24:50;;;;;;;;;;;8.70;99.90;;;;;;5096004;28;20028;-74
2023/04/02 03:27:24;;;;;;;1.02;0.10;;;8.70;99.90;;;;;;5077452;28;19950;-74
2023/04/02 03:30:28;;;;;;;1.17;0.00;;;8.70;99.90;;;;;;5095666;28;20035;-74
2023/04/02 03:32:59;;;;;;;1.45;0.10;;;8.70;99.90;;;;;;5095853;28;20049;-74
2023/04/02 03:35:31;;;;;;;0.30;0.05;;;8.70;99.90;;;;;;5095451;28;20055;-74
2023/04/02 03:38:29;;;;;;;0.00;0.00;;;8.60;99.90;;;;;;5094987;28;20055;-74
2023/04/02 03:41:00;;;;;;;0.40;0.40;;;8.70;99.90;;;;;;5044855;28;20115;-74
2023/04/02 03:43:41;;;;;;;1.98;0.10;;;8.60;99.90;;;;;;5076469;28;20032;-74
2023/04/02 03:46:12;;;;;;;0.45;0.22;;;8.60;99.90;;;;;;5076337;28;20024;-74
2023/04/02 03:48:45;;;;;;;0.30;0.20;;;8.60;99.90;;;;;;5094341;28;20533;-74
2023/04/02 03:51:25;;;;;;;2.03;0.25;;;8.60;99.90;;;;;;5094661;28;20074;-75
2023/04/02 03:53:51;;;;;;;0.30;0.25;;;8.60;99.90;;;;;;5076171;28;20044;-74
2023/04/02 03:56:30;;;;;;;2.20;0.17;;;8.60;99.90;;;;;;5094161;28;20095;-74
2023/04/02 03:59:30;;;;;;;0.38;0.38;;;8.60;99.90;;;;;;5094339;28;20020;-74
2023/04/02 04:02:17;;;;;;;0.90;0.22;;;8.60;99.90;;;;;;5094245;28;20028;-74
2023/04/02 04:04:43;;;;;;;0.68;0.15;;;8.60;99.90;;;;;;5093840;28;20035;-74
2023/04/02 04:07:34;;;;;;;0.32;0.30;;;8.60;99.90;;;;;;5094916;28;20099;-74
2023/04/02 04:10:01;;;;;;;0.30;0.30;;;8.60;99.90;;;;;;5094114;28;20169;-74
2023/04/02 04:12:41;;;;;;;0.80;0.30;;;8.60;99.90;;;;;;5076474;28;20039;-74
2023/04/02 04:15:21;;;;;;;0.50;0.50;;;8.60;99.90;;;;;;5095379;28;20101;-74
2023/04/02 04:18:01;;;;;;;0.82;0.50;;;8.70;99.90;;;;;;5099032;28;20365;-74
2023/04/02 04:20:45;;;;;;;0.77;0.70;;;8.70;99.90;;;;;;5099226;28;20027;-74
2023/04/02 04:23:30;;;;;;;1.17;0.98;;;8.70;99.90;;;;;;5098276;28;20028;-74
2023/04/02 04:26:11;;;;;;;0.60;0.60;;;8.70;99.90;;;;;;5098466;28;20024;-74
2023/04/02 04:28:57;;;;;;;2.72;0.82;;;8.70;99.90;;;;;;5100026;28;20479;-74
2023/04/02 04:31:48;;;;;;;0.80;0.80;;;8.70;99.90;;;;;;5083313;28;20495;-74
2023/04/02 04:34:28;;;;;;;1.00;1.00;;;8.60;99.90;;;;;;5101171;28;20028;-74
2023/04/02 04:37:06;;;;;;;0.85;0.85;;;8.70;99.90;;;;;;5098932;28;20023;-74
2023/04/02 04:39:49;;;;;;;0.82;0.80;;;8.70;99.90;;;;;;5079388;28;20028;-74
2023/04/02 04:42:23;;;;;;;0.75;0.75;;;8.70;99.90;;;;;;5079454;28;20035;-74
2023/04/02 04:45:13;;;;;;;0.52;0.50;;;8.70;99.90;;;;;;5079927;28;20024;-75
2023/04/02 04:47:46;;;;;;;2.55;0.40;;;8.70;99.90;;;;;;5080358;28;20384;-75
2023/04/02 04:50:14;;;;;;;0.82;0.57;;;8.70;99.90;;;;;;5099572;28;20042;-75
2023/04/02 04:52:43;;;;;;;1.05;0.40;;;8.70;99.90;;;;;;5082610;28;20075;-75
2023/04/02 04:55:45;;;;;;;1.17;0.40;;;8.70;99.90;;;;;;5102293;28;20021;-75
2023/04/02 04:58:17;;;;;;;0.95;0.40;;;8.70;99.90;;;;;;5044201;28;20051;-75
2023/04/02 05:00:58;;;;;;;0.20;0.20;;;8.70;99.90;;;;;;5085338;28;20020;-75
2023/04/02 05:03:47;;;;;;;1.45;0.52;;;8.70;99.90;;;;;;5101181;28;20032;-76
2023/04/02 05:06:48;;;;;;;1.85;0.32;;;8.70;99.90;;;;;;5082483;28;20035;-76
2023/04/02 05:09:33;;;;;;;0.30;0.22;;;8.70;99.90;;;;;;5081803;28;20020;-76
2023/04/02 05:12:02;;;;;;;0.30;0.20;;;8.60;99.90;;;;;;5099463;28;20123;-77
2023/04/02 05:14:37;;;;;;;0.65;0.35;;;8.60;99.90;;;;;;5098473;28;20056;-76
2023/04/02 05:17:09;;;;;;;0.93;0.32;;;8.60;99.90;;;;;;5081373;28;20032;-75
2023/04/02 05:20:15;;;;;;;1.77;0.40;;;8.50;99.90;;;;;;5082298;28;20422;-76
2023/04/02 05:23:03;;;;;;;0.68;0.40;;;8.60;99.90;;;;;;5069932;28;20373;-76
2023/04/02 05:25:31;;;;;;;0.40;0.30;;;8.50;99.90;;;;;;5080688;28;20430;-75
2023/04/02 05:28:02;;;;;;;1.13;0.40;;;8.50;99.90;;;;;;5079367;28;20032;-76
2023/04/02 05:30:28;;;;;;;1.92;0.60;;;8.50;99.90;;;;;;5082255;28;20028;-76
2023/04/02 05:33:14;;;;;;;0.95;0.70;;;8.50;99.90;;;;;;5099227;28;20035;-76
2023/04/02 05:35:47;;;;;;;0.40;0.40;;;8.60;99.90;;;;;;5080498;28;20024;-76
2023/04/02 05:38:26;;;;;;;1.05;0.60;;;8.60;99.90;;;;;;5096392;28;20032;-76
2023/04/02 05:41:37;;;;;;;0.90;0.90;;;8.50;99.90;;;;;;5079138;28;20031;-76
2023/04/02 05:44:15;;;;;;;2.55;0.90;;;8.50;99.90;;;;;;5088908;28;20127;-76
2023/04/02 05:46:48;;;;;;;1.50;0.97;;;8.50;99.90;;;;;;5079015;28;20544;-76
2023/04/02 05:49:24;;;;;;;1.60;1.20;;;8.50;99.90;;;;;;5097180;28;20048;-76
2023/04/02 05:51:53;;;;;;;2.15;1.38;;;8.50;99.90;;;;;;5078298;28;20028;-76
2023/04/02 05:54:27;;;;;;;3.30;1.60;;;8.50;99.90;;;;;;5097719;28;20052;-76
2023/04/02 05:56:59;;;;;;;1.98;1.77;;;8.40;99.90;;;;;;5080463;28;20021;-76
2023/04/02 05:59:30;;;;;;;2.42;2.20;;;8.40;99.90;;;;;;5097082;28;20039;-76
2023/04/02 06:02:21;;;;;;;2.13;2.00;;;8.40;99.90;;;;;;5081357;28;20456;-76
2023/04/02 06:05:13;;;;;;;2.58;2.00;;;8.40;99.90;;;;;;5095645;28;20081;-77
2023/04/02 06:07:50;;;;;;;3.08;2.17;;;8.40;99.90;;;;;;5079247;28;20032;-77
2023/04/02 06:10:27;;;;;;;2.30;2.10;;;8.40;99.90;;;;;;5077871;28;20472;-77
2023/04/02 06:13:01;;;;;;;3.75;2.47;;;8.40;99.90;;;;;;5077948;28;20395;-77
2023/04/02 06:15:26;;;;;;;2.75;2.55;;;8.40;99.90;;;;;;5095965;28;20363;-76
2023/04/02 06:18:03;;;;;;;6.63;3.53;;;8.40;99.90;;;;;;5078003;28;20024;-76
2023/04/02 06:20:29;;;;;;;6.22;2.72;;;8.40;99.90;;;;;;5096865;28;20034;-76
2023/04/02 06:23:08;;;;;;;3.35;2.08;;;8.40;99.90;;;;;;5097386;28;20031;-76
2023/04/02 06:25:38;;;;;;;;;;;8.50;99.90;;;;;;5095788;28;20028;-76
2023/04/02 06:28:11;;;;;;;3.45;1.73;;;8.50;99.90;;;;;;5095948;28;19914;-76
2023/04/02 06:30:40;;;;;;;3.50;1.90;;;8.60;99.90;;;;;;5077619;28;20024;-76
2023/04/02 06:33:07;;;;;;;2.70;1.88;;;8.50;99.90;;;;;;5077944;28;20443;-76
2023/04/02 06:35:36;;;;;;;1.95;1.40;;;8.60;99.90;;;;;;5095562;28;20079;-76
2023/04/02 06:38:05;;;;;;;2.63;1.15;;;8.60;99.90;;;;;;5077560;28;20028;-76
2023/04/02 06:40:32;;;;;;;1.65;1.52;;;8.60;99.90;;;;;;5094107;28;20123;-75
2023/04/02 06:43:03;;;;;;;1.38;1.27;;;8.60;99.90;;;;;;5077005;28;20034;-76
2023/04/02 06:45:37;;;;;;;1.80;0.85;;;8.70;99.90;;;;;;5095058;28;20101;-76
2023/04/02 06:48:03;;;;;;;1.55;1.25;;;8.70;99.90;;;;;;5077199;28;20119;-76
2023/04/02 06:50:43;;;;;;;1.15;1.05;;;8.70;99.90;;;;;;5076934;28;20024;-78
2023/04/02 06:53:25;;;;;;;2.78;1.00;;;8.70;99.90;;;;;;5094806;28;20361;-60
2023/04/02 06:56:00;;;;;;;1.55;0.80;;;8.90;99.90;;;;;;5095033;28;20028;-60
2023/04/02 06:58:25;;;;;;;1.52;0.73;;;9.20;99.90;;;;;;5094916;28;20032;-76
2023/04/02 07:00:51;;;;;;;1.23;0.82;;;9.30;99.90;;;;;;5099897;28;20020;-76
2023/04/02 07:03:31;;;;;;;1.95;0.70;;;9.40;99.90;;;;;;5099737;28;20115;-76
2023/04/02 07:06:00;;;;;;;0.77;0.70;;;9.40;99.90;;;;;;5080543;28;20050;-77
2023/04/02 07:08:26;;;;;;;1.60;0.65;;;9.40;99.90;;;;;;5081667;28;20393;-78
2023/04/02 07:10:52;;;;;;;4.40;0.80;;;9.50;99.90;;;;;;5081400;28;20028;-76
2023/04/02 07:13:22;;;;;;;1.33;1.23;;;9.40;99.90;;;;;;5079370;28;20035;-76
2023/04/02 07:15:51;;;;;;;1.40;0.80;;;9.30;99.90;;;;;;5081072;28;20496;-76
2023/04/02 07:18:27;;;;;;;1.50;1.13;;;9.40;99.90;;;;;;5099503;28;20020;-76
2023/04/02 07:20:53;;;;;;;2.63;1.10;;;9.40;99.90;;;;;;5096664;28;20081;-76
2023/04/02 07:23:20;;;;;;;2.53;1.30;;;9.40;99.90;;;;;;5098791;28;20422;-75
2023/04/02 07:25:50;;;;;;;3.05;1.65;;;9.40;99.90;;;;;;5099635;28;20065;-75
2023/04/02 07:28:16;;;;;;;3.28;2.17;;;9.40;99.90;;;;;;5098101;28;20067;-76
2023/04/02 07:30:43;;;;;;;2.47;1.90;;;9.50;99.90;;;;;;5094222;28;20030;-78
2023/04/02 07:33:18;;;;;;;2.88;2.67;;;9.40;99.90;;;;;;5094772;28;20024;-76
2023/04/02 07:35:44;;;;;;;2.70;2.25;;;9.30;99.90;;;;;;5095155;28;20372;-76
2023/04/02 07:38:10;;;;;;;2.30;2.15;;;9.30;99.90;;;;;;5081938;28;20024;-76
2023/04/02 07:40:36;;;;;;;2.60;2.40;;;9.40;99.90;;;;;;5082677;28;20020;-77
2023/04/02 07:43:02;;;;;;;5.30;2.83;;;9.30;99.90;;;;;;5100409;28;20028;-77
2023/04/02 07:45:27;;;;;;;2.78;2.25;;;9.40;99.90;;;;;;5099525;28;20024;-77
2023/04/02 07:47:53;;;;;;;2.60;2.40;;;9.30;99.90;;;;;;5083524;28;20031;-77
2023/04/02 07:50:19;;;;;;;3.63;2.50;;;9.40;99.90;;;;;;5100540;28;20024;-78
2023/04/02 07:52:45;;;;;;;2.65;2.45;;;9.30;99.90;;;;;;5083196;28;20044;-79
2023/04/02 07:55:13;;;;;;;2.95;2.40;;;9.30;99.90;;;;;;5079830;28;20039;-62
2023/04/02 07:57:40;;;;;;;2.22;2.03;;;9.40;99.90;;;;;;5094446;28;20150;-62
2023/04/02 08:00:09;;;;;;;3.97;2.50;;;9.50;99.90;;;;;;5077093;28;20051;-62
2023/04/02 08:02:35;;;;;;;4.68;2.55;;;9.60;99.90;;;;;;5095708;28;20111;-75
2023/04/02 08:05:01;;;;;;;2.05;1.88;;;9.70;99.90;;;;;;5102667;28;20051;-75
2023/04/02 08:07:27;;;;;;;2.30;2.10;;;9.60;99.90;;;;;;5102158;28;20050;-75
2023/04/02 08:09:53;;;;;;;2.38;1.85;;;9.60;99.90;;;;;;5083773;28;20119;-75
2023/04/02 08:12:18;;;;;;;2.20;2.00;;;9.60;99.90;;;;;;5083556;28;20028;-74
2023/04/02 08:14:44;;;;;;;3.00;1.80;;;9.60;99.90;;;;;;5103126;28;20444;-74
2023/04/02 08:17:10;;;;;;;2.10;1.90;;;9.60;99.90;;;;;;5084410;28;20035;-74
2023/04/02 08:19:36;;;;;;;1.73;1.60;;;9.60;99.90;;;;;;5102538;28;20024;-74
2023/04/02 08:22:01;;;;;;;1.77;1.67;;;9.60;99.90;;;;;;5103773;28;20084;-74
2023/04/02 08:24:27;;;;;;;2.80;1.42;;;9.50;99.90;;;;;;5081173;28;20432;-75
2023/04/02 08:26:53;;;;;;;1.55;1.45;;;9.40;99.90;;;;;;5100503;28;20059;-74
2023/04/02 08:29:20;;;;;;;1.20;1.20;;;9.40;99.90;;;;;;5099797;28;20032;-74
2023/04/02 08:31:45;;;;;;;1.58;1.48;;;9.40;99.90;;;;;;5082602;28;20523;-75
2023/04/02 08:34:11;;;;;;;3.03;1.30;;;9.50;99.90;;;;;;5094066;28;20052;-61
2023/04/02 08:36:40;;;;;;;3.58;1.33;;;9.60;99.90;;;;;;5075359;28;20035;-63
2023/04/02 08:39:10;;;;;;;4.13;1.15;;;9.70;99.90;;;;;;5092219;28;20025;-62
2023/04/02 08:41:59;;;;;;;5.07;1.80;;;9.60;99.90;;;;;;5075830;28;20118;-62
2023/04/02 08:45:05;;;;;;;3.28;1.65;;;9.50;99.90;;;;;;5093236;28;20043;-61
2023/04/02 08:47:36;;;;;;;2.53;0.98;;;9.50;99.90;;;;;;5063391;28;20032;-62
2023/04/02 08:50:31;;;;;;;7.32;1.50;;;9.50;99.90;;;;;;5092210;28;20024;-65
2023/04/02 08:52:59;;;;;;;4.07;1.50;;;9.50;99.90;;;;;;5078675;28;20068;-75
2023/04/02 08:55:38;;;;;;;2.30;1.15;;;9.50;99.90;;;;;;5103309;28;20020;-79
2023/04/02 08:58:16;;;;;;;2.58;1.60;;;9.50;99.90;;;;;;5084058;28;20115;-79
2023/04/02 09:00:44;;;;;;;2.10;1.48;;;9.50;99.90;;;;;;5084131;28;20032;-78
2023/04/02 09:03:16;;;;;;;3.15;1.60;;;9.50;99.90;;;;;;5085309;28;20033;-78
2023/04/02 09:05:44;;;;;;;2.17;1.77;;;9.40;99.90;;;;;;5104964;28;20162;-78
2023/04/02 09:08:23;;;;;;;4.20;2.58;;;9.30;99.90;;;;;;5085845;28;20024;-76
2023/04/02 09:10:54;;;;;;;;;;;9.30;99.90;;;;;;5103444;28;20016;-76
2023/04/02 09:13:25;;;;;;;4.20;2.50;;;9.20;99.90;;;;;;5103325;28;19930;-76
2023/04/02 09:16:04;;;;;;;3.72;2.33;;;9.30;99.90;;;;;;5084619;28;20031;-76
2023/04/02 09:18:31;;;;;;;2.80;2.15;;;9.20;99.90;;;;;;5085490;28;20388;-77
2023/04/02 09:20:57;;;;;;;4.75;2.65;;;9.10;99.90;;;;;;5085911;28;20028;-77
2023/04/02 09:23:26;;;;;;;6.40;2.13;;;9.10;99.90;;;;;;5102831;28;20088;-79
2023/04/02 09:25:53;;;;;;;4.07;2.35;;;9.10;99.90;;;;;;5084202;28;20380;-77
2023/04/02 09:28:20;;;;;;;4.18;2.10;;;9.00;99.90;;;;;;5085050;28;20122;-77
2023/04/02 09:30:57;;;;;;;4.68;2.05;;;9.00;99.90;;;;;;5084655;28;20055;-77
2023/04/02 09:33:47;;;;;;;4.70;2.10;;;9.00;99.90;;;;;;5085010;28;20028;-77
2023/04/02 09:36:35;;;;;;;4.28;2.53;;;9.10;99.90;;;;;;5100227;28;20024;-76
2023/04/02 09:39:06;;;;;;;3.40;0.68;;;9.20;99.90;;;;;;5083053;28;20032;-77
2023/04/02 09:41:34;;;;;;;3.05;0.90;;;9.20;99.90;;;;;;5086363;28;20028;-75
2023/04/02 09:44:26;;;;;;;0.70;0.70;;;9.20;99.90;;;;;;5087063;28;20086;-75
2023/04/02 09:47:02;;;;;;;2.33;1.10;;;9.10;99.90;;;;;;5086989;28;20032;-74
2023/04/02 09:49:31;;;;;;;2.67;1.20;;;9.10;99.90;;;;;;5085495;28;20118;-74
2023/04/02 09:52:27;;;;;;;2.40;1.40;;;9.20;99.90;;;;;;5103336;28;20024;-74
2023/04/02 09:55:14;;;;;;;2.08;1.70;;;9.50;99.90;;;;;;5096655;28;20102;-74
2023/04/02 09:57:42;;;;;;;3.15;1.95;;;9.90;99.90;;;;;;5102198;28;20040;-74
2023/04/02 10:00:23;;;;;;;3.08;2.70;;;10.10;99.90;;;;;;5099937;28;20024;-74
2023/04/02 10:03:00;;;;;;;2.33;1.85;;;10.60;99.90;;;;;;5079280;28;20031;-73
2023/04/02 10:05:26;;;;;;;4.82;2.38;;;11.10;99.90;;;;;;5096060;28;20113;-73
2023/04/02 10:07:53;;;;;;;1.80;1.38;;;11.80;99.90;;;;;;5095577;28;20056;-74
2023/04/02 10:10:42;;;;;;;1.30;1.20;;;12.20;99.90;;;;;;5096261;28;20024;-73
2023/04/02 10:13:23;;;;;;;1.20;1.10;;;12.30;99.90;;;;;;5094408;28;20028;-72
2023/04/02 10:16:13;;;;;;;1.48;1.20;;;12.30;99.90;;;;;;5094892;28;20375;-69
2023/04/02 10:18:57;;;;;;;2.85;1.00;;;12.50;99.90;;;;;;5095241;28;20380;-69
2023/04/02 10:21:27;;;;;;;2.55;1.17;;;12.40;99.90;;;;;;5077278;28;20035;-69
2023/04/02 10:23:54;;;;;;;1.33;1.23;;;13.00;99.90;;;;;;5094228;28;20027;-69
2023/04/02 10:26:38;;;;;;;0.75;0.75;;;13.10;99.90;;;;;;5094342;28;20491;-69
2023/04/02 10:29:41;;;;;;;1.45;1.00;;;13.30;99.90;;;;;;5077080;28;20024;-68
2023/04/02 10:32:15;;;;;;;1.50;0.75;;;13.80;99.90;;;;;;5093951;28;20123;-69
2023/04/02 10:35:01;;;;;;;1.40;0.73;;;13.70;99.90;;;;;;5076880;28;20031;-68
2023/04/02 10:37:47;;;;;;;1.20;0.80;;;13.50;99.90;;;;;;5095160;28;20020;-68
2023/04/02 10:40:24;;;;;;;3.15;0.60;;;13.60;99.90;;;;;;5077203;28;20028;-69
2023/04/02 10:43:32;;;;;;;1.65;0.73;;;13.90;99.90;;;;;;5076825;28;20031;-62
2023/04/02 10:46:54;;;;;;;0.40;0.40;;;14.10;99.90;;;;;;5094839;28;20464;-62
2023/04/02 10:49:46;;;;;;;2.55;0.73;;;13.90;99.90;;;;;;5063650;28;20040;-62
2023/04/02 10:52:36;;;;;;;1.35;0.47;;;13.60;99.90;;;;;;5094868;28;20028;-71
2023/04/02 10:55:27;;;;;;;0.98;0.60;;;12.50;99.90;;;;;;5094861;28;20040;-71
2023/04/02 10:57:58;;;;;;;0.50;0.50;;;12.70;99.90;;;;;;5094602;28;20043;-71
2023/04/02 11:00:32;;;;;;;0.65;0.65;;;12.30;99.90;;;;;;5076735;28;20020;-71
2023/04/02 11:03:21;;;;;;;1.25;0.80;;;12.00;99.90;;;;;;5094995;28;20024;-70
2023/04/02 11:05:50;;;;;;;0.60;0.60;;;11.80;99.90;;;;;;5095191;28;20028;-70
2023/04/02 11:08:26;;;;;;;1.45;0.98;;;11.60;99.90;;;;;;5076431;28;20463;-71
2023/04/02 11:10:54;;;;;;;0.30;0.30;;;11.60;99.90;;;;;;5094366;28;20028;-71
2023/04/02 11:13:35;;;;;;;0.80;0.80;;;11.50;99.90;;;;;;5094700;28;20032;-72
2023/04/02 11:16:02;;;;;;;1.75;0.57;;;11.30;99.90;;;;;;5094927;28;20031;-72
2023/04/02 11:18:37;;;;;;;1.50;0.73;;;11.20;99.90;;;;;;5095016;28;20051;-71
2023/04/02 11:21:07;;;;;;;2.47;1.10;;;11.20;99.90;;;;;;5076831;28;20020;-71
2023/04/02 11:23:52;;;;;;;7.65;1.23;;;11.00;99.90;;;;;;5094498;28;20089;-64
2023/04/02 11:26:45;;;;;;;7.15;0.98;;;10.90;99.90;;;;;;5075354;28;20028;-65
2023/04/02 11:29:28;;;;;;;2.50;0.60;;;10.90;99.90;;;;;;5076101;28;20064;-65
2023/04/02 11:32:12;;;;;;;1.80;0.70;;;10.80;99.90;;;;;;5094555;28;20107;-72
2023/04/02 11:34:41;;;;;;;0.95;0.80;;;10.80;99.90;;;;;;5076123;28;20020;-73
2023/04/02 11:37:43;;;;;;;1.23;0.82;;;10.80;99.90;;;;;;5093390;28;20020;-74
2023/04/02 11:40:15;;;;;;;0.70;0.70;;;10.80;99.90;;;;;;5068809;28;20388;-76
2023/04/02 11:42:43;;;;;;;0.85;0.80;;;10.60;99.90;;;;;;5068373;28;20047;-76
2023/04/02 11:45:27;;;;;;;2.70;1.20;;;10.40;99.90;;;;;;5085539;28;20391;-78
2023/04/02 11:47:59;;;;;;;5.03;1.60;;;10.30;99.90;;;;;;5089247;28;20081;-79
2023/04/02 11:50:32;;;;;;;0.40;0.40;;;10.10;99.90;;;;;;5095666;28;20478;-77
2023/04/02 11:53:05;;;;;;;0.85;0.60;;;9.70;99.90;;;;;;5069384;28;20053;-78
2023/04/02 11:55:33;;;;;;;0.52;0.50;;;9.60;99.90;;;;;;5065491;28;20029;-78
2023/04/02 11:58:19;;;;;;;2.50;0.50;;;9.40;99.90;;;;;;5067221;28;20027;-77
2023/04/02 12:00:48;;;;;;;1.33;0.50;;;9.20;99.90;;;;;;5059915;28;20142;-77
2023/04/02 12:03:17;;;;;;;0.60;0.60;;;9.10;99.90;;;;;;5056018;28;20041;-78
2023/04/02 12:05:57;;;;;;;2.38;0.85;;;9.00;99.90;;;;;;5062306;28;20033;-76
2023/04/02 12:08:32;;;;;;;1.75;0.65;;;9.10;99.90;;;;;;5056791;28;20029;-76
2023/04/02 12:11:01;;;;;;;0.60;0.40;;;9.10;99.90;;;;;;5056731;28;20088;-76
2023/04/02 12:13:38;;;;;;;1.83;0.83;;;9.10;99.90;;;;;;5056541;28;20064;-76
2023/04/02 12:16:15;;;;;;;3.28;0.65;;;9.20;99.90;;;;;;5054645;28;20651;-75
2023/04/02 12:18:47;;;;;;;3.28;0.63;;;9.20;99.90;;;;;;5055474;28;20112;-72
2023/04/02 12:21:18;;;;;;;2.15;0.63;;;9.20;99.90;;;;;;5054225;28;20044;-75
2023/04/02 12:23:46;;;;;;;7.13;1.27;;;9.20;99.90;;;;;;5053338;28;20060;-75
2023/04/02 12:26:30;;;;;;;1.02;0.80;;;9.20;99.90;;;;;;5053308;28;20103;-75
2023/04/02 12:29:24;;;;;;;2.38;0.85;;;9.20;99.90;;;;;;5052711;28;20092;-76
2023/04/02 12:31:51;;;;;;;0.50;0.40;;;9.20;99.90;;;;;;5053122;28;20020;-76
2023/04/02 12:34:22;;;;;;;0.57;0.52;;;8.90;99.90;;;;;;5053361;28;20361;-76
2023/04/02 12:36:58;;;;;;;2.53;0.68;;;8.80;99.90;;;;;;5055807;28;20107;-75
2023/04/02 12:39:25;;;;;;;0.70;0.70;;;8.70;99.90;;;;;;5060801;28;20029;-76
2023/04/02 12:41:51;;;;;;;0.57;0.57;;;8.80;99.90;;;;;;5059187;28;20029;-74
2023/04/02 12:44:22;;;;;;;1.17;1.13;;;8.70;99.90;;;;;;5057999;28;20040;-75
2023/04/02 12:46:49;;;;;;;0.90;0.85;;;8.70;99.90;;;;;;5058225;28;20434;-75
2023/04/02 12:49:24;;;;;;;2.15;1.00;;;8.70;99.90;;;;;;5059448;28;20024;-74
2023/04/02 12:51:50;;;;;;;1.30;1.00;;;8.80;99.90;;;;;;5058271;28;20079;-73
2023/04/02 12:54:19;;;;;;;1.45;1.08;;;8.70;99.90;;;;;;5090814;28;20127;-74
2023/04/02 12:56:49;;;;;;;0.82;0.82;;;8.60;99.90;;;;;;5103267;28;20020;-74
2023/04/02 12:59:39;;;;;;;3.13;1.30;;;8.50;99.90;;;;;;5101415;28;20035;-72
2023/04/02 13:02:25;;;;;;;2.22;1.30;;;8.50;99.90;;;;;;5071659;28;20526;-66
2023/04/02 13:04:56;;;;;;;2.65;1.40;;;8.60;99.90;;;;;;5079031;28;20040;-65
2023/04/02 13:07:25;;;;;;;3.22;1.50;;;8.60;99.90;;;;;;5078837;28;20101;-64
2023/04/02 13:10:12;;;;;;;1.67;1.58;;;8.60;99.90;;;;;;5101245;28;20175;-75
2023/04/02 13:12:39;;;;;;;1.50;1.30;;;8.60;99.90;;;;;;5075839;28;20078;-75
2023/04/02 13:15:26;;;;;;;1.30;1.20;;;8.60;99.90;;;;;;5099602;28;20043;-74
2023/04/02 13:18:11;;;;;;;1.83;1.67;;;8.70;99.90;;;;;;5098222;28;20063;-75
2023/04/02 13:20:38;;;;;;;3.13;1.70;;;8.80;99.90;;;;;;5080692;28;20440;-74
2023/04/02 13:23:28;;;;;;;1.48;1.33;;;8.90;99.90;;;;;;5079840;28;20032;-74
2023/04/02 13:25:56;;;;;;;3.85;1.45;;;8.90;99.90;;;;;;5097069;28;20028;-73
2023/04/02 13:28:22;;;;;;;5.63;2.05;;;8.90;99.90;;;;;;5078577;28;20035;-74
2023/04/02 13:30:48;;;;;;;3.35;1.48;;;8.90;99.90;;;;;;5096396;28;20032;-74
2023/04/02 13:33:14;;;;;;;0.80;0.80;;;8.90;99.90;;;;;;5078583;28;20066;-74
2023/04/02 13:35:40;;;;;;;5.95;1.60;;;8.90;99.90;;;;;;5098931;28;20028;-73
2023/04/02 13:38:07;;;;;;;2.03;1.13;;;8.90;99.90;;;;;;5080967;28;20024;-73
2023/04/02 13:40:35;;;;;;;3.20;1.38;;;8.90;99.90;;;;;;5081510;28;20463;-73